sensor_id;sensor_type;location;lat;lon;timestamp;pressure;altitude;pressure_sealevel;temperature;humidity
33845;BME280;20145;43.118;25.694;2022-09-03T00:01:40;99315.75;;;19.88;100.00
33845;BME280;20145;43.118;25.694;2022-09-03T00:04:13;99317.66;;;19.84;100.00
33845;BME280;20145;43.118;25.694;2022-09-03T00:06:48;99310.50;;;19.70;100.00
33845;BME280;20145;43.118;25.694;2022-09-03T00:09:22;99317.34;;;19.38;100.00
33845;BME280;20145;43.118;25.694;2022-09-03T00:15:06;99320.97;;;19.35;100.00
33845;BME280;20145;43.118;25.694;2022-09-03T00:18:18;99321.34;;;19.28;100.00
33845;BME280;20145;43.118;25.694;2022-09-03T00:21:02;99330.19;;;19.25;100.00
33845;BME280;20145;43.118;25.694;2022-09-03T00:23:34;99328.50;;;19.24;100.00
33845;BME280;20145;43.118;25.694;2022-09-03T00:29:11;99342.16;;;19.12;100.00
33845;BME280;20145;43.118;25.694;2022-09-03T00:31:42;99339.84;;;19.23;100.00
33845;BME280;20145;43.118;25.694;2022-09-03T00:36:47;99343.69;;;18.99;100.00
33845;BME280;20145;43.118;25.694;2022-09-03T00:39:19;99355.38;;;19.09;100.00
33845;BME280;20145;43.118;25.694;2022-09-03T00:53:52;99358.81;;;19.28;100.00
33845;BME280;20145;43.118;25.694;2022-09-03T01:04:46;99364.88;;;18.92;100.00
33845;BME280;20145;43.118;25.694;2022-09-03T01:07:37;99369.53;;;18.86;100.00
33845;BME280;20145;43.118;25.694;2022-09-03T01:12:51;99370.31;;;19.07;100.00
33845;BME280;20145;43.118;25.694;2022-09-03T01:29:09;99380.88;;;19.23;100.00
33845;BME280;20145;43.118;25.694;2022-09-03T01:32:18;99360.34;;;19.15;100.00
33845;BME280;20145;43.118;25.694;2022-09-03T01:46:22;99386.06;;;19.42;100.00
33845;BME280;20145;43.118;25.694;2022-09-03T01:48:55;99381.84;;;19.56;100.00
33845;BME280;20145;43.118;25.694;2022-09-03T01:51:27;99381.44;;;19.66;100.00
33845;BME280;20145;43.118;25.694;2022-09-03T02:05:05;99386.22;;;19.75;100.00
33845;BME280;20145;43.118;25.694;2022-09-03T02:07:38;99378.91;;;19.81;100.00
33845;BME280;20145;43.118;25.694;2022-09-03T02:10:07;99389.50;;;19.78;100.00
33845;BME280;20145;43.118;25.694;2022-09-03T02:12:35;99372.41;;;19.54;100.00
33845;BME280;20145;43.118;25.694;2022-09-03T02:15:06;99398.25;;;19.60;100.00
33845;BME280;20145;43.118;25.694;2022-09-03T02:17:35;99391.75;;;19.69;100.00
33845;BME280;20145;43.118;25.694;2022-09-03T02:20:06;99391.53;;;19.73;100.00
33845;BME280;20145;43.118;25.694;2022-09-03T02:22:33;99390.59;;;19.74;100.00
33845;BME280;20145;43.118;25.694;2022-09-03T02:24:59;99390.59;;;19.74;100.00
33845;BME280;20145;43.118;25.694;2022-09-03T02:27:27;99395.69;;;19.77;99.61
33845;BME280;20145;43.118;25.694;2022-09-03T02:29:53;99400.28;;;19.72;100.00
33845;BME280;20145;43.118;25.694;2022-09-03T02:32:19;99390.31;;;19.61;100.00
33845;BME280;20145;43.118;25.694;2022-09-03T02:34:45;99393.47;;;19.51;100.00
33845;BME280;20145;43.118;25.694;2022-09-03T02:37:16;99390.16;;;19.65;100.00
33845;BME280;20145;43.118;25.694;2022-09-03T02:39:42;99388.19;;;19.70;99.60
33845;BME280;20145;43.118;25.694;2022-09-03T02:42:11;99395.88;;;19.55;100.00
33845;BME280;20145;43.118;25.694;2022-09-03T02:44:51;99400.59;;;19.66;100.00
33845;BME280;20145;43.118;25.694;2022-09-03T02:47:18;99382.06;;;19.71;100.00
33845;BME280;20145;43.118;25.694;2022-09-03T02:49:48;99393.69;;;19.82;99.75
33845;BME280;20145;43.118;25.694;2022-09-03T02:52:14;99388.34;;;19.67;99.13
33845;BME280;20145;43.118;25.694;2022-09-03T02:54:40;99395.75;;;19.76;98.01
33845;BME280;20145;43.118;25.694;2022-09-03T02:57:12;99391.03;;;19.65;98.67
33845;BME280;20145;43.118;25.694;2022-09-03T02:59:39;99393.81;;;19.62;99.73
33845;BME280;20145;43.118;25.694;2022-09-03T03:02:06;99387.06;;;19.56;100.00
33845;BME280;20145;43.118;25.694;2022-09-03T03:04:32;99381.25;;;19.51;98.95
33845;BME280;20145;43.118;25.694;2022-09-03T03:06:58;99389.56;;;19.59;99.73
33845;BME280;20145;43.118;25.694;2022-09-03T03:09:23;99390.56;;;19.57;98.31
33845;BME280;20145;43.118;25.694;2022-09-03T03:11:49;99390.47;;;19.58;98.89
33845;BME280;20145;43.118;25.694;2022-09-03T03:14:16;99385.97;;;19.62;99.28
33845;BME280;20145;43.118;25.694;2022-09-03T03:16:43;99391.75;;;19.69;99.81
33845;BME280;20145;43.118;25.694;2022-09-03T03:19:09;99388.97;;;19.72;99.21
33845;BME280;20145;43.118;25.694;2022-09-03T03:21:34;99390.41;;;19.60;97.15
33845;BME280;20145;43.118;25.694;2022-09-03T03:24:01;99389.78;;;19.55;97.95
33845;BME280;20145;43.118;25.694;2022-09-03T03:26:26;99386.38;;;19.53;97.21
33845;BME280;20145;43.118;25.694;2022-09-03T03:28:56;99384.72;;;19.52;98.59
33845;BME280;20145;43.118;25.694;2022-09-03T03:31:22;99387.56;;;19.28;97.29
33845;BME280;20145;43.118;25.694;2022-09-03T03:33:52;99387.38;;;19.33;99.10
33845;BME280;20145;43.118;25.694;2022-09-03T03:36:19;99386.69;;;19.29;99.56
33845;BME280;20145;43.118;25.694;2022-09-03T03:38:45;99395.84;;;19.38;98.60
33845;BME280;20145;43.118;25.694;2022-09-03T03:41:16;99388.78;;;19.40;99.58
33845;BME280;20145;43.118;25.694;2022-09-03T03:43:42;99398.78;;;19.49;98.51
33845;BME280;20145;43.118;25.694;2022-09-03T03:46:08;99393.22;;;19.38;97.60
33845;BME280;20145;43.118;25.694;2022-09-03T03:48:35;99390.16;;;19.47;99.18
33845;BME280;20145;43.118;25.694;2022-09-03T03:51:04;99392.63;;;19.50;98.79
33845;BME280;20145;43.118;25.694;2022-09-03T03:53:36;99392.41;;;19.55;99.06
33845;BME280;20145;43.118;25.694;2022-09-03T03:56:05;99388.47;;;19.46;98.14
33845;BME280;20145;43.118;25.694;2022-09-03T03:58:32;99391.47;;;19.56;97.99
33845;BME280;20145;43.118;25.694;2022-09-03T04:01:15;99396.06;;;19.51;98.26
33845;BME280;20145;43.118;25.694;2022-09-03T04:03:41;99402.59;;;19.42;98.01
33845;BME280;20145;43.118;25.694;2022-09-03T04:06:09;99404.38;;;19.42;97.96
33845;BME280;20145;43.118;25.694;2022-09-03T04:08:36;99407.63;;;19.47;97.49
33845;BME280;20145;43.118;25.694;2022-09-03T04:11:04;99417.47;;;19.42;96.83
33845;BME280;20145;43.118;25.694;2022-09-03T04:13:34;99414.38;;;19.33;97.77
33845;BME280;20145;43.118;25.694;2022-09-03T04:16:02;99413.59;;;19.31;98.33
33845;BME280;20145;43.118;25.694;2022-09-03T04:18:29;99410.28;;;19.28;97.76
33845;BME280;20145;43.118;25.694;2022-09-03T04:21:06;99405.50;;;19.19;98.67
33845;BME280;20145;43.118;25.694;2022-09-03T04:23:34;99427.06;;;19.24;97.93
33845;BME280;20145;43.118;25.694;2022-09-03T04:26:01;99421.53;;;19.11;99.20
33845;BME280;20145;43.118;25.694;2022-09-03T04:28:27;99426.28;;;19.22;99.87
33845;BME280;20145;43.118;25.694;2022-09-03T04:30:53;99430.03;;;18.97;98.99
33845;BME280;20145;43.118;25.694;2022-09-03T04:33:19;99435.25;;;18.97;99.27
33845;BME280;20145;43.118;25.694;2022-09-03T04:35:44;99433.78;;;18.91;99.79
33845;BME280;20145;43.118;25.694;2022-09-03T04:38:10;99430.31;;;18.91;100.00
33845;BME280;20145;43.118;25.694;2022-09-03T04:40:36;99439.94;;;18.90;100.00
33845;BME280;20145;43.118;25.694;2022-09-03T04:43:03;99443.31;;;18.92;100.00
33845;BME280;20145;43.118;25.694;2022-09-03T04:45:29;99449.47;;;18.91;100.00
33845;BME280;20145;43.118;25.694;2022-09-03T04:48:00;99445.72;;;18.97;99.59
33845;BME280;20145;43.118;25.694;2022-09-03T04:50:27;99461.63;;;19.11;99.70
33845;BME280;20145;43.118;25.694;2022-09-03T04:52:54;99446.56;;;19.16;99.32
33845;BME280;20145;43.118;25.694;2022-09-03T04:55:21;99459.00;;;19.11;100.00
33845;BME280;20145;43.118;25.694;2022-09-03T04:57:47;99453.63;;;19.14;100.00
33845;BME280;20145;43.118;25.694;2022-09-03T05:00:13;99465.81;;;19.15;99.34
33845;BME280;20145;43.118;25.694;2022-09-03T05:02:43;99473.16;;;19.07;100.00
33845;BME280;20145;43.118;25.694;2022-09-03T05:05:11;99475.19;;;19.01;100.00
33845;BME280;20145;43.118;25.694;2022-09-03T05:07:37;99481.63;;;18.93;100.00
33845;BME280;20145;43.118;25.694;2022-09-03T05:10:05;99477.66;;;19.04;100.00
33845;BME280;20145;43.118;25.694;2022-09-03T05:12:31;99481.91;;;19.06;100.00
33845;BME280;20145;43.118;25.694;2022-09-03T05:14:57;99487.84;;;18.91;100.00
33845;BME280;20145;43.118;25.694;2022-09-03T05:17:24;99483.94;;;18.60;100.00
33845;BME280;20145;43.118;25.694;2022-09-03T05:19:49;99486.94;;;18.51;100.00
33845;BME280;20145;43.118;25.694;2022-09-03T05:22:15;99489.44;;;18.54;100.00
33845;BME280;20145;43.118;25.694;2022-09-03T05:24:46;99491.28;;;18.52;100.00
33845;BME280;20145;43.118;25.694;2022-09-03T05:27:13;99491.88;;;18.38;100.00
33845;BME280;20145;43.118;25.694;2022-09-03T05:29:42;99491.53;;;18.46;100.00
33845;BME280;20145;43.118;25.694;2022-09-03T05:32:07;99483.84;;;18.43;100.00
33845;BME280;20145;43.118;25.694;2022-09-03T05:34:33;99495.44;;;18.56;100.00
33845;BME280;20145;43.118;25.694;2022-09-03T05:36:58;99488.75;;;18.69;100.00
33845;BME280;20145;43.118;25.694;2022-09-03T05:39:25;99489.22;;;18.59;100.00
33845;BME280;20145;43.118;25.694;2022-09-03T05:41:51;99492.94;;;18.73;100.00
33845;BME280;20145;43.118;25.694;2022-09-03T05:44:17;99496.44;;;18.74;100.00
33845;BME280;20145;43.118;25.694;2022-09-03T05:46:45;99496.69;;;18.88;100.00
33845;BME280;20145;43.118;25.694;2022-09-03T05:49:11;99503.19;;;18.99;100.00
33845;BME280;20145;43.118;25.694;2022-09-03T05:51:37;99500.31;;;18.84;100.00
33845;BME280;20145;43.118;25.694;2022-09-03T05:54:07;99507.41;;;18.82;100.00
33845;BME280;20145;43.118;25.694;2022-09-03T05:56:33;99513.19;;;18.89;100.00
33845;BME280;20145;43.118;25.694;2022-09-03T05:59:02;99522.03;;;18.86;100.00
33845;BME280;20145;43.118;25.694;2022-09-03T06:01:32;99519.72;;;18.99;100.00
33845;BME280;20145;43.118;25.694;2022-09-03T06:04:00;99524.88;;;19.01;100.00
33845;BME280;20145;43.118;25.694;2022-09-03T06:06:27;99526.66;;;19.00;99.42
33845;BME280;20145;43.118;25.694;2022-09-03T06:08:55;99542.66;;;19.13;100.00
33845;BME280;20145;43.118;25.694;2022-09-03T06:11:23;99539.59;;;19.03;99.97
33845;BME280;20145;43.118;25.694;2022-09-03T06:13:51;99543.91;;;19.23;99.41
33845;BME280;20145;43.118;25.694;2022-09-03T06:16:16;99547.31;;;19.25;98.31
33845;BME280;20145;43.118;25.694;2022-09-03T06:18:42;99555.72;;;19.13;98.51
33845;BME280;20145;43.118;25.694;2022-09-03T06:21:08;99556.50;;;19.15;97.75
33845;BME280;20145;43.118;25.694;2022-09-03T06:23:34;99560.09;;;19.31;97.36
33845;BME280;20145;43.118;25.694;2022-09-03T06:26:09;99559.50;;;19.26;97.06
33845;BME280;20145;43.118;25.694;2022-09-03T06:28:36;99559.91;;;19.36;96.91
33845;BME280;20145;43.118;25.694;2022-09-03T06:31:05;99549.09;;;19.25;96.34
33845;BME280;20145;43.118;25.694;2022-09-03T06:33:33;99562.22;;;19.23;96.07
33845;BME280;20145;43.118;25.694;2022-09-03T06:36:00;99559.75;;;19.20;96.90
33845;BME280;20145;43.118;25.694;2022-09-03T06:38:28;99559.00;;;19.18;96.16
33845;BME280;20145;43.118;25.694;2022-09-03T06:40:58;99557.44;;;19.33;97.06
33845;BME280;20145;43.118;25.694;2022-09-03T06:43:32;99560.47;;;19.43;96.33
33845;BME280;20145;43.118;25.694;2022-09-03T06:46:00;99562.03;;;19.47;95.28
33845;BME280;20145;43.118;25.694;2022-09-03T06:48:27;99569.44;;;19.56;94.71
33845;BME280;20145;43.118;25.694;2022-09-03T06:50:57;99550.88;;;19.43;93.84
33845;BME280;20145;43.118;25.694;2022-09-03T06:53:31;99579.91;;;19.56;94.20
33845;BME280;20145;43.118;25.694;2022-09-03T06:55:59;99578.09;;;19.58;94.33
33845;BME280;20145;43.118;25.694;2022-09-03T06:58:34;99571.22;;;19.36;93.79
33845;BME280;20145;43.118;25.694;2022-09-03T07:01:04;99585.09;;;19.38;94.92
33845;BME280;20145;43.118;25.694;2022-09-03T07:03:37;99581.63;;;19.38;94.75
33845;BME280;20145;43.118;25.694;2022-09-03T07:06:05;99590.47;;;19.35;94.58
33845;BME280;20145;43.118;25.694;2022-09-03T07:08:32;99594.25;;;19.28;93.40
33845;BME280;20145;43.118;25.694;2022-09-03T07:11:06;99585.16;;;19.18;94.79
33845;BME280;20145;43.118;25.694;2022-09-03T07:13:39;99593.56;;;19.25;94.27
33845;BME280;20145;43.118;25.694;2022-09-03T07:16:08;99579.63;;;19.24;94.43
33845;BME280;20145;43.118;25.694;2022-09-03T07:18:34;99590.75;;;19.29;93.88
33845;BME280;20145;43.118;25.694;2022-09-03T07:21:03;99598.47;;;19.51;94.52
33845;BME280;20145;43.118;25.694;2022-09-03T07:23:30;99585.28;;;19.34;93.81
33845;BME280;20145;43.118;25.694;2022-09-03T07:25:57;99588.03;;;19.31;94.18
33845;BME280;20145;43.118;25.694;2022-09-03T07:28:24;99588.00;;;19.51;92.99
33845;BME280;20145;43.118;25.694;2022-09-03T07:30:51;99592.09;;;19.76;92.49
33845;BME280;20145;43.118;25.694;2022-09-03T07:33:17;99596.94;;;19.85;92.29
33845;BME280;20145;43.118;25.694;2022-09-03T07:35:44;99595.81;;;19.91;91.15
33845;BME280;20145;43.118;25.694;2022-09-03T07:38:09;99587.50;;;20.00;89.80
33845;BME280;20145;43.118;25.694;2022-09-03T07:40:36;99597.28;;;19.96;90.15
33845;BME280;20145;43.118;25.694;2022-09-03T07:43:04;99601.34;;;20.21;88.22
33845;BME280;20145;43.118;25.694;2022-09-03T07:45:30;99598.09;;;20.16;88.39
33845;BME280;20145;43.118;25.694;2022-09-03T07:47:58;99596.41;;;20.15;89.18
33845;BME280;20145;43.118;25.694;2022-09-03T07:50:23;99595.84;;;20.25;89.32
33845;BME280;20145;43.118;25.694;2022-09-03T07:52:54;99606.13;;;20.30;88.92
33845;BME280;20145;43.118;25.694;2022-09-03T07:55:19;99599.34;;;20.26;88.02
33845;BME280;20145;43.118;25.694;2022-09-03T07:57:45;99598.03;;;20.35;87.95
33845;BME280;20145;43.118;25.694;2022-09-03T08:00:11;99607.59;;;20.36;88.22
33845;BME280;20145;43.118;25.694;2022-09-03T08:02:37;99593.50;;;20.38;87.46
33845;BME280;20145;43.118;25.694;2022-09-03T08:05:03;99598.94;;;20.34;86.86
33845;BME280;20145;43.118;25.694;2022-09-03T08:07:29;99607.41;;;20.21;87.48
33845;BME280;20145;43.118;25.694;2022-09-03T08:09:55;99598.41;;;20.27;87.05
33845;BME280;20145;43.118;25.694;2022-09-03T08:12:21;99605.75;;;20.20;87.09
33845;BME280;20145;43.118;25.694;2022-09-03T08:14:46;99600.59;;;20.00;87.59
33845;BME280;20145;43.118;25.694;2022-09-03T08:17:12;99608.94;;;19.89;87.92
33845;BME280;20145;43.118;25.694;2022-09-03T08:19:38;99610.44;;;19.76;89.84
33845;BME280;20145;43.118;25.694;2022-09-03T08:22:05;99603.66;;;19.91;89.36
33845;BME280;20145;43.118;25.694;2022-09-03T08:24:30;99606.28;;;19.91;89.26
33845;BME280;20145;43.118;25.694;2022-09-03T08:26:58;99604.53;;;20.09;88.91
33845;BME280;20145;43.118;25.694;2022-09-03T08:29:23;99603.63;;;20.10;87.95
33845;BME280;20145;43.118;25.694;2022-09-03T08:31:49;99606.28;;;20.27;89.03
33845;BME280;20145;43.118;25.694;2022-09-03T08:34:15;99603.97;;;20.38;88.37
33845;BME280;20145;43.118;25.694;2022-09-03T08:36:41;99599.75;;;20.53;86.89
33845;BME280;20145;43.118;25.694;2022-09-03T08:39:08;99609.72;;;20.64;86.34
33845;BME280;20145;43.118;25.694;2022-09-03T08:47:50;99601.66;;;20.49;86.03
33845;BME280;20145;43.118;25.694;2022-09-03T08:50:32;99604.03;;;20.73;84.41
33845;BME280;20145;43.118;25.694;2022-09-03T08:53:22;99602.56;;;20.67;83.97
33845;BME280;20145;43.118;25.694;2022-09-03T08:55:55;99598.69;;;20.75;84.19
33845;BME280;20145;43.118;25.694;2022-09-03T08:58:25;99601.28;;;20.92;84.45
33845;BME280;20145;43.118;25.694;2022-09-03T09:03:52;99601.13;;;21.28;81.84
33845;BME280;20145;43.118;25.694;2022-09-03T09:20:05;99617.16;;;21.24;82.52
33845;BME280;20145;43.118;25.694;2022-09-03T09:22:43;99605.19;;;21.18;82.64
33845;BME280;20145;43.118;25.694;2022-09-03T09:25:15;99620.06;;;21.35;83.24
33845;BME280;20145;43.118;25.694;2022-09-03T09:28:03;99634.03;;;21.35;83.37
33845;BME280;20145;43.118;25.694;2022-09-03T09:30:31;99628.25;;;21.29;82.83
33845;BME280;20145;43.118;25.694;2022-09-03T09:32:57;99616.75;;;21.14;83.49
33845;BME280;20145;43.118;25.694;2022-09-03T09:35:25;99628.88;;;21.16;83.06
33845;BME280;20145;43.118;25.694;2022-09-03T09:37:53;99626.88;;;21.22;83.20
33845;BME280;20145;43.118;25.694;2022-09-03T09:40:32;99624.69;;;21.30;82.87
33845;BME280;20145;43.118;25.694;2022-09-03T09:43:11;99626.81;;;21.56;81.85
33845;BME280;20145;43.118;25.694;2022-09-03T09:45:40;99626.56;;;21.45;81.91
33845;BME280;20145;43.118;25.694;2022-09-03T09:50:40;99638.16;;;21.24;81.99
33845;BME280;20145;43.118;25.694;2022-09-03T09:53:08;99635.13;;;21.31;82.17
33845;BME280;20145;43.118;25.694;2022-09-03T09:55:55;99621.97;;;20.98;82.25
33845;BME280;20145;43.118;25.694;2022-09-03T09:58:25;99620.72;;;21.05;83.37
33845;BME280;20145;43.118;25.694;2022-09-03T10:01:14;99636.09;;;20.96;83.41
33845;BME280;20145;43.118;25.694;2022-09-03T10:04:12;99636.31;;;20.91;83.51
33845;BME280;20145;43.118;25.694;2022-09-03T10:06:57;99643.84;;;20.81;83.70
33845;BME280;20145;43.118;25.694;2022-09-03T10:09:28;99652.06;;;20.74;84.99
33845;BME280;20145;43.118;25.694;2022-09-03T10:12:20;99642.59;;;20.54;86.56
33845;BME280;20145;43.118;25.694;2022-09-03T10:15:14;99662.72;;;20.70;85.87
33845;BME280;20145;43.118;25.694;2022-09-03T10:20:41;99658.53;;;20.84;85.83
33845;BME280;20145;43.118;25.694;2022-09-03T10:23:24;99670.13;;;20.80;84.46
33845;BME280;20145;43.118;25.694;2022-09-03T10:28:26;99671.06;;;20.79;84.45
33845;BME280;20145;43.118;25.694;2022-09-03T10:31:02;99676.78;;;20.87;85.84
33845;BME280;20145;43.118;25.694;2022-09-03T10:33:43;99660.31;;;20.66;84.62
33845;BME280;20145;43.118;25.694;2022-09-03T10:39:12;99683.72;;;20.52;84.54
33845;BME280;20145;43.118;25.694;2022-09-03T10:49:57;99680.16;;;20.71;85.67
33845;BME280;20145;43.118;25.694;2022-09-03T10:55:21;99678.16;;;20.77;85.40
33845;BME280;20145;43.118;25.694;2022-09-03T11:00:40;99681.69;;;20.76;84.07
33845;BME280;20145;43.118;25.694;2022-09-03T11:06:31;99682.78;;;20.53;85.74
33845;BME280;20145;43.118;25.694;2022-09-03T11:12:07;99673.44;;;21.01;83.42
33845;BME280;20145;43.118;25.694;2022-09-03T11:14:39;99679.22;;;21.07;82.28
33845;BME280;20145;43.118;25.694;2022-09-03T11:17:19;99685.16;;;20.76;83.45
33845;BME280;20145;43.118;25.694;2022-09-03T11:19:51;99692.56;;;20.85;83.41
33845;BME280;20145;43.118;25.694;2022-09-03T11:22:19;99698.19;;;20.60;85.10
33845;BME280;20145;43.118;25.694;2022-09-03T11:24:53;99684.28;;;20.58;84.24
33845;BME280;20145;43.118;25.694;2022-09-03T11:30:04;99700.44;;;20.68;84.81
33845;BME280;20145;43.118;25.694;2022-09-03T11:32:49;99703.53;;;20.76;85.18
33845;BME280;20145;43.118;25.694;2022-09-03T11:35:37;99704.13;;;20.64;84.81
33845;BME280;20145;43.118;25.694;2022-09-03T11:43:37;99702.28;;;20.47;86.47
33845;BME280;20145;43.118;25.694;2022-09-03T11:46:25;99712.91;;;20.44;87.00
33845;BME280;20145;43.118;25.694;2022-09-03T11:48:54;99705.75;;;20.47;86.81
33845;BME280;20145;43.118;25.694;2022-09-03T11:51:29;99709.66;;;20.58;87.21
33845;BME280;20145;43.118;25.694;2022-09-03T11:56:23;99705.53;;;20.71;86.04
33845;BME280;20145;43.118;25.694;2022-09-03T12:01:46;99682.47;;;21.12;82.66
33845;BME280;20145;43.118;25.694;2022-09-03T12:04:18;99708.84;;;21.27;81.63
33845;BME280;20145;43.118;25.694;2022-09-03T12:17:58;99720.31;;;20.72;85.16
33845;BME280;20145;43.118;25.694;2022-09-03T12:23:32;99705.47;;;20.90;85.38
33845;BME280;20145;43.118;25.694;2022-09-03T12:26:03;99711.13;;;20.44;87.23
33845;BME280;20145;43.118;25.694;2022-09-03T12:28:29;99710.94;;;20.30;88.17
33845;BME280;20145;43.118;25.694;2022-09-03T12:31:06;99719.72;;;19.91;89.82
33845;BME280;20145;43.118;25.694;2022-09-03T12:33:32;99715.25;;;19.74;90.53
33845;BME280;20145;43.118;25.694;2022-09-03T12:36:00;99719.06;;;19.67;92.09
33845;BME280;20145;43.118;25.694;2022-09-03T12:38:28;99713.28;;;19.59;92.99
33845;BME280;20145;43.118;25.694;2022-09-03T12:40:56;99719.31;;;19.61;93.81
33845;BME280;20145;43.118;25.694;2022-09-03T12:43:27;99722.00;;;19.59;93.64
33845;BME280;20145;43.118;25.694;2022-09-03T12:45:53;99726.91;;;19.67;93.87
33845;BME280;20145;43.118;25.694;2022-09-03T12:48:20;99720.38;;;19.57;93.19
33845;BME280;20145;43.118;25.694;2022-09-03T12:50:47;99738.88;;;19.11;95.26
33845;BME280;20145;43.118;25.694;2022-09-03T12:53:21;99736.31;;;18.89;97.43
33845;BME280;20145;43.118;25.694;2022-09-03T12:55:51;99734.19;;;18.77;99.07
33845;BME280;20145;43.118;25.694;2022-09-03T12:58:23;99730.47;;;18.61;99.01
33845;BME280;20145;43.118;25.694;2022-09-03T13:01:11;99737.72;;;18.76;100.00
33845;BME280;20145;43.118;25.694;2022-09-03T13:06:20;99721.34;;;18.93;98.96
33845;BME280;20145;43.118;25.694;2022-09-03T13:11:20;99734.47;;;18.91;99.06
33845;BME280;20145;43.118;25.694;2022-09-03T13:16:31;99736.00;;;19.17;98.45
33845;BME280;20145;43.118;25.694;2022-09-03T13:19:11;99730.97;;;19.13;97.69
33845;BME280;20145;43.118;25.694;2022-09-03T13:21:53;99729.47;;;19.28;97.91
33845;BME280;20145;43.118;25.694;2022-09-03T13:27:36;99735.31;;;18.92;98.00
33845;BME280;20145;43.118;25.694;2022-09-03T13:30:09;99728.28;;;18.94;98.51
33845;BME280;20145;43.118;25.694;2022-09-03T13:32:49;99737.88;;;18.93;98.72
33845;BME280;20145;43.118;25.694;2022-09-03T13:40:46;99737.03;;;18.93;100.00
33845;BME280;20145;43.118;25.694;2022-09-03T13:45:45;99741.56;;;19.10;98.48
33845;BME280;20145;43.118;25.694;2022-09-03T13:48:19;99739.13;;;19.05;97.96
33845;BME280;20145;43.118;25.694;2022-09-03T13:51:26;99736.88;;;19.18;97.28
33845;BME280;20145;43.118;25.694;2022-09-03T13:54:13;99733.94;;;18.83;98.00
33845;BME280;20145;43.118;25.694;2022-09-03T13:59:50;99735.94;;;18.99;98.60
33845;BME280;20145;43.118;25.694;2022-09-03T14:18:56;99743.91;;;18.96;99.36
33845;BME280;20145;43.118;25.694;2022-09-03T14:21:32;99745.78;;;18.92;99.11
33845;BME280;20145;43.118;25.694;2022-09-03T14:26:26;99755.19;;;19.18;98.63
33845;BME280;20145;43.118;25.694;2022-09-03T14:29:12;99749.75;;;19.23;96.13
33845;BME280;20145;43.118;25.694;2022-09-03T14:32:01;99751.38;;;18.61;99.34
33845;BME280;20145;43.118;25.694;2022-09-03T14:37:48;99747.47;;;17.80;100.00
33845;BME280;20145;43.118;25.694;2022-09-03T14:40:10;99732.66;;;17.55;100.00
33845;BME280;20145;43.118;25.694;2022-09-03T14:56:53;99750.59;;;18.13;100.00
33845;BME280;20145;43.118;25.694;2022-09-03T14:59:42;99749.94;;;18.30;100.00
33845;BME280;20145;43.118;25.694;2022-09-03T15:07:57;99769.91;;;18.55;100.00
33845;BME280;20145;43.118;25.694;2022-09-03T15:10:41;99755.81;;;18.59;100.00
33845;BME280;20145;43.118;25.694;2022-09-03T15:13:17;99763.47;;;18.63;100.00
33845;BME280;20145;43.118;25.694;2022-09-03T15:18:40;99766.84;;;18.89;100.00
33845;BME280;20145;43.118;25.694;2022-09-03T15:24:10;99772.53;;;19.21;98.84
33845;BME280;20145;43.118;25.694;2022-09-03T15:29:35;99782.63;;;19.08;98.74
33845;BME280;20145;43.118;25.694;2022-09-03T15:37:29;99784.66;;;19.01;98.46
33845;BME280;20145;43.118;25.694;2022-09-03T15:40:02;99784.31;;;19.09;99.42
33845;BME280;20145;43.118;25.694;2022-09-03T15:42:29;99787.81;;;19.09;97.67
33845;BME280;20145;43.118;25.694;2022-09-03T15:45:03;99780.16;;;19.05;97.38
33845;BME280;20145;43.118;25.694;2022-09-03T15:47:47;99779.66;;;18.95;96.39
33845;BME280;20145;43.118;25.694;2022-09-03T15:50:36;99783.91;;;18.98;98.60
33845;BME280;20145;43.118;25.694;2022-09-03T15:53:27;99789.97;;;18.98;97.41
33845;BME280;20145;43.118;25.694;2022-09-03T15:59:13;99791.28;;;19.10;97.83
33845;BME280;20145;43.118;25.694;2022-09-03T16:01:44;99782.78;;;19.25;98.50
33845;BME280;20145;43.118;25.694;2022-09-03T16:07:04;99785.78;;;19.36;96.26
33845;BME280;20145;43.118;25.694;2022-09-03T16:15:28;99796.94;;;18.77;96.18
33845;BME280;20145;43.118;25.694;2022-09-03T16:20:53;99786.13;;;18.41;100.00
33845;BME280;20145;43.118;25.694;2022-09-03T16:26:24;99796.88;;;18.55;100.00
33845;BME280;20145;43.118;25.694;2022-09-03T16:28:53;99798.28;;;18.64;99.52
33845;BME280;20145;43.118;25.694;2022-09-03T16:31:41;99796.78;;;18.58;98.84
33845;BME280;20145;43.118;25.694;2022-09-03T16:37:11;99800.63;;;18.71;98.22
33845;BME280;20145;43.118;25.694;2022-09-03T16:42:51;99801.66;;;18.89;96.07
33845;BME280;20145;43.118;25.694;2022-09-03T16:51:09;99809.94;;;18.79;96.39
33845;BME280;20145;43.118;25.694;2022-09-03T16:54:05;99803.84;;;18.78;96.10
33845;BME280;20145;43.118;25.694;2022-09-03T17:10:30;99830.81;;;19.02;92.92
33845;BME280;20145;43.118;25.694;2022-09-03T17:13:14;99833.16;;;19.08;95.69
33845;BME280;20145;43.118;25.694;2022-09-03T17:18:40;99839.75;;;19.19;95.66
33845;BME280;20145;43.118;25.694;2022-09-03T17:21:32;99836.59;;;19.10;93.53
33845;BME280;20145;43.118;25.694;2022-09-03T17:24:08;99834.38;;;19.22;95.49
33845;BME280;20145;43.118;25.694;2022-09-03T17:26:53;99840.81;;;19.35;96.48
33845;BME280;20145;43.118;25.694;2022-09-03T17:35:17;99849.91;;;19.69;92.93
33845;BME280;20145;43.118;25.694;2022-09-03T17:43:54;99845.41;;;19.93;93.08
33845;BME280;20145;43.118;25.694;2022-09-03T17:46:44;99848.59;;;19.99;91.60
33845;BME280;20145;43.118;25.694;2022-09-03T17:49:45;99854.63;;;20.01;91.41
33845;BME280;20145;43.118;25.694;2022-09-03T17:55:12;99875.84;;;19.95;90.29
33845;BME280;20145;43.118;25.694;2022-09-03T17:57:47;99878.66;;;19.91;91.07
33845;BME280;20145;43.118;25.694;2022-09-03T18:03:57;99890.38;;;19.82;90.90